Time;durP1;ratioP1;P1;durP2;ratioP2;P2;SDS_P1;SDS_P2;PMS_P1;PMS_P2;Temp;Humidity;BMP_temperature;BMP_pressure;BME280_temperature;BME280_humidity;BME280_pressure;Samples;Min_cycle;Max_cycle;Signal;HPM_P1;HPM_P2
2022/03/02 00:00:22;;;;;;;115.32;52.20;;;;;;;;;;5140697;28;20198;-91
2022/03/02 00:02:48;;;;;;;116.35;53.03;;;;;;;;;;5138005;28;20708;-91
2022/03/02 00:05:16;;;;;;;118.75;54.08;;;;;;;;;;5119212;28;20194;-91
2022/03/02 00:07:42;;;;;;;113.38;53.58;;;;;;;;;;5118776;28;20206;-91
2022/03/02 00:10:09;;;;;;;113.75;53.17;;;;;;;;;;5119709;28;20228;-91
2022/03/02 00:12:37;;;;;;;115.35;52.42;;;;;;;;;;5119565;28;20750;-90
2022/03/02 00:15:04;;;;;;;116.28;54.17;;;;;;;;;;5119562;28;20194;-90
2022/03/02 00:17:30;;;;;;;115.80;52.75;;;;;;;;;;5125983;28;20207;-90
2022/03/02 00:19:57;;;;;;;113.72;52.75;;;;;;;;;;5125256;28;20201;-91
2022/03/02 00:22:23;;;;;;;118.13;53.30;;;;;;;;;;5125261;28;20252;-90
2022/03/02 00:24:51;;;;;;;114.70;51.90;;;;;;;;;;5126185;28;20223;-91
2022/03/02 00:27:18;;;;;;;119.60;52.75;;;;;;;;;;5125965;28;20198;-91
2022/03/02 00:29:46;;;;;;;117.13;53.58;;;;;;;;;;5125319;28;20219;-91
2022/03/02 00:32:12;;;;;;;113.15;52.45;;;;;;;;;;5123922;28;20224;-91
2022/03/02 00:34:39;;;;;;;111.25;51.20;;;;;;;;;;5124796;28;20198;-91
2022/03/02 00:37:06;;;;;;;113.22;52.72;;;;;;;;;;5125375;28;20255;-91
2022/03/02 00:39:32;;;;;;;116.43;53.40;;;;;;;;;;5124957;28;20198;-91
2022/03/02 00:41:59;;;;;;;112.47;52.03;;;;;;;;;;5124982;28;20625;-90
2022/03/02 00:44:25;;;;;;;120.63;53.15;;;;;;;;;;5124505;28;20198;-91
2022/03/02 00:46:54;;;;;;;117.95;53.22;;;;;;;;;;5123430;28;20197;-91
2022/03/02 00:49:22;;;;;;;117.13;53.22;;;;;;;;;;5122754;28;20267;-91
2022/03/02 00:51:49;;;;;;;116.43;52.83;;;;;;;;;;5124290;28;20201;-90
2022/03/02 00:54:15;;;;;;;109.45;50.85;;;;;;;;;;5125458;28;20205;-91
2022/03/02 00:56:41;;;;;;;115.53;52.33;;;;;;;;;;5124782;28;20198;-92
2022/03/02 00:59:08;;;;;;;111.80;52.45;;;;;;;;;;5125212;28;20863;-91
2022/03/02 01:01:34;;;;;;;126.93;55.70;;;;;;;;;;5124447;28;20646;-91
2022/03/02 01:04:02;;;;;;;109.95;51.50;;;;;;;;;;5113483;28;20827;-91
2022/03/02 01:06:29;;;;;;;115.93;52.45;;;;;;;;;;5124408;28;20198;-90
2022/03/02 01:08:55;;;;;;;110.70;51.72;;;;;;;;;;5125641;28;20591;-91
2022/03/02 01:11:22;;;;;;;114.55;51.78;;;;;;;;;;5124885;28;20341;-91
2022/03/02 01:13:48;;;;;;;113.88;51.78;;;;;;;;;;5125525;28;20198;-91
2022/03/02 01:16:15;;;;;;;115.25;52.63;;;;;;;;;;5125128;28;20248;-91
2022/03/02 01:18:42;;;;;;;112.32;51.20;;;;;;;;;;5124579;28;20220;-91
2022/03/02 01:21:10;;;;;;;117.25;52.72;;;;;;;;;;5122764;28;20198;-91
2022/03/02 01:23:36;;;;;;;112.93;51.50;;;;;;;;;;5124821;28;20259;-91
2022/03/02 01:26:03;;;;;;;112.38;52.17;;;;;;;;;;5123992;28;20202;-91
2022/03/02 01:28:29;;;;;;;108.93;51.08;;;;;;;;;;5125238;28;20290;-91
2022/03/02 01:30:56;;;;;;;113.10;51.97;;;;;;;;;;5124277;28;20255;-91
2022/03/02 01:33:23;;;;;;;113.75;52.13;;;;;;;;;;5123264;28;20194;-92
2022/03/02 01:35:50;;;;;;;115.53;54.00;;;;;;;;;;5123986;28;20202;-90
2022/03/02 01:38:18;;;;;;;116.90;52.95;;;;;;;;;;5122203;28;20726;-91
2022/03/02 01:40:44;;;;;;;114.50;52.85;;;;;;;;;;5122708;28;20220;-91
2022/03/02 01:43:12;;;;;;;115.95;53.80;;;;;;;;;;5123118;28;20684;-91
2022/03/02 01:45:39;;;;;;;111.88;51.90;;;;;;;;;;5122358;28;20198;-92
2022/03/02 01:48:05;;;;;;;111.35;52.83;;;;;;;;;;5122446;28;20194;-91
2022/03/02 01:50:32;;;;;;;114.65;51.67;;;;;;;;;;5122196;28;20194;-91
2022/03/02 01:52:59;;;;;;;117.47;54.38;;;;;;;;;;5122397;28;20223;-91
2022/03/02 01:55:27;;;;;;;114.70;54.28;;;;;;;;;;5121313;28;20194;-91
2022/03/02 01:57:54;;;;;;;117.05;51.92;;;;;;;;;;5121508;28;20202;-92
2022/03/02 02:00:21;;;;;;;114.18;53.20;;;;;;;;;;5124356;28;20198;-91
2022/03/02 02:02:48;;;;;;;116.38;53.00;;;;;;;;;;5122179;28;20262;-91
2022/03/02 02:05:15;;;;;;;118.40;52.90;;;;;;;;;;5105273;28;20248;-91
2022/03/02 02:07:42;;;;;;;112.53;50.88;;;;;;;;;;5086067;28;20230;-90
2022/03/02 02:10:09;;;;;;;114.88;54.10;;;;;;;;;;5103518;28;20202;-91
2022/03/02 02:12:37;;;;;;;111.15;52.38;;;;;;;;;;5113550;28;20193;-90
2022/03/02 02:15:04;;;;;;;116.22;53.10;;;;;;;;;;5123458;28;20202;-90
2022/03/02 02:17:31;;;;;;;109.38;50.53;;;;;;;;;;5123226;28;20198;-91
2022/03/02 02:19:57;;;;;;;112.70;52.63;;;;;;;;;;5121731;28;20231;-90
2022/03/02 02:22:25;;;;;;;114.97;53.83;;;;;;;;;;5121473;28;20224;-90
2022/03/02 02:24:51;;;;;;;114.70;51.92;;;;;;;;;;5123167;28;20226;-90
2022/03/02 02:27:18;;;;;;;117.78;53.53;;;;;;;;;;5123885;28;20198;-90
2022/03/02 02:29:45;;;;;;;116.30;51.20;;;;;;;;;;5124422;28;20197;-91
2022/03/02 02:32:11;;;;;;;121.43;53.97;;;;;;;;;;5122401;28;20194;-92
2022/03/02 02:34:38;;;;;;;116.45;52.25;;;;;;;;;;5123485;28;20206;-92
2022/03/02 02:37:06;;;;;;;117.25;53.38;;;;;;;;;;5123222;28;20197;-91
2022/03/02 02:39:35;;;;;;;114.43;52.60;;;;;;;;;;5124020;28;20613;-90
2022/03/02 02:42:03;;;;;;;116.40;51.85;;;;;;;;;;5123930;28;20202;-90
2022/03/02 02:44:30;;;;;;;115.63;53.55;;;;;;;;;;5122124;28;20614;-90
2022/03/02 02:46:56;;;;;;;115.53;54.67;;;;;;;;;;5120340;28;20198;-90
2022/03/02 02:49:23;;;;;;;116.53;53.00;;;;;;;;;;5121360;28;20314;-90
2022/03/02 02:51:50;;;;;;;114.03;52.50;;;;;;;;;;5103051;28;20195;-90
2022/03/02 02:54:17;;;;;;;111.50;51.60;;;;;;;;;;5103171;28;20291;-91
2022/03/02 02:56:45;;;;;;;107.05;49.78;;;;;;;;;;5102246;28;20220;-91
2022/03/02 02:59:11;;;;;;;114.07;52.35;;;;;;;;;;5102173;28;20198;-90
2022/03/02 03:01:38;;;;;;;119.68;52.85;;;;;;;;;;5101940;28;20194;-90
2022/03/02 03:04:06;;;;;;;115.25;52.72;;;;;;;;;;5113412;28;20310;-91
2022/03/02 03:06:33;;;;;;;111.03;51.65;;;;;;;;;;5119016;28;20186;-90
2022/03/02 03:08:59;;;;;;;115.00;50.20;;;;;;;;;;5122079;28;20227;-90
2022/03/02 03:11:26;;;;;;;115.63;53.35;;;;;;;;;;5122760;28;20201;-90
2022/03/02 03:13:53;;;;;;;111.10;51.83;;;;;;;;;;5122882;28;20511;-90
2022/03/02 03:16:20;;;;;;;108.00;50.22;;;;;;;;;;5121748;28;20219;-90
2022/03/02 03:18:46;;;;;;;108.80;50.55;;;;;;;;;;5121254;28;20665;-90
2022/03/02 03:21:13;;;;;;;113.30;52.10;;;;;;;;;;5122127;28;20262;-90
2022/03/02 03:23:39;;;;;;;112.85;51.05;;;;;;;;;;5121190;28;20229;-90
2022/03/02 03:26:06;;;;;;;108.43;51.42;;;;;;;;;;5122802;28;20198;-90
2022/03/02 03:28:32;;;;;;;105.70;49.30;;;;;;;;;;5122708;28;20230;-90
2022/03/02 03:31:00;;;;;;;106.93;50.33;;;;;;;;;;5120691;28;20198;-90
2022/03/02 03:33:27;;;;;;;105.70;49.05;;;;;;;;;;5121578;28;20197;-91
2022/03/02 03:35:53;;;;;;;110.45;50.97;;;;;;;;;;5123067;28;20201;-90
2022/03/02 03:38:19;;;;;;;108.18;50.80;;;;;;;;;;5123423;28;20247;-89
2022/03/02 03:40:46;;;;;;;109.50;50.33;;;;;;;;;;5119489;28;20255;-90
2022/03/02 03:43:12;;;;;;;113.75;51.15;;;;;;;;;;5120958;28;20221;-90
2022/03/02 03:45:39;;;;;;;110.53;49.85;;;;;;;;;;5123280;28;20207;-90
2022/03/02 03:48:07;;;;;;;112.60;51.80;;;;;;;;;;5122766;28;20194;-89
2022/03/02 03:50:33;;;;;;;111.70;51.03;;;;;;;;;;5124134;28;20197;-89
2022/03/02 03:53:00;;;;;;;107.43;51.03;;;;;;;;;;5124359;28;20202;-90
2022/03/02 03:55:26;;;;;;;109.10;51.33;;;;;;;;;;5126738;28;20254;-90
2022/03/02 03:57:53;;;;;;;111.57;51.40;;;;;;;;;;5125582;28;20198;-89
2022/03/02 04:00:20;;;;;;;106.20;50.35;;;;;;;;;;5126732;28;20198;-89
2022/03/02 04:02:47;;;;;;;108.45;50.83;;;;;;;;;;5124981;28;20233;-89
2022/03/02 04:05:15;;;;;;;110.25;51.10;;;;;;;;;;5106398;28;20234;-90
2022/03/02 04:07:41;;;;;;;112.75;50.95;;;;;;;;;;5106316;28;20199;-90
2022/03/02 04:10:09;;;;;;;109.80;50.35;;;;;;;;;;5105543;28;20661;-90
2022/03/02 04:12:36;;;;;;;109.38;49.42;;;;;;;;;;5105146;28;20203;-90
2022/03/02 04:15:03;;;;;;;112.90;52.72;;;;;;;;;;5106131;28;20209;-90
2022/03/02 04:17:29;;;;;;;112.75;50.67;;;;;;;;;;5124998;28;20220;-90
2022/03/02 04:19:56;;;;;;;116.47;52.38;;;;;;;;;;5124884;28;20721;-90
2022/03/02 04:22:24;;;;;;;113.25;51.75;;;;;;;;;;5125442;28;20202;-90
2022/03/02 04:24:51;;;;;;;117.57;53.30;;;;;;;;;;5124357;28;20230;-91
2022/03/02 04:27:18;;;;;;;110.93;51.92;;;;;;;;;;5123696;28;21238;-91
2022/03/02 04:29:44;;;;;;;111.05;50.78;;;;;;;;;;5124937;28;20198;-90
2022/03/02 04:32:11;;;;;;;110.90;51.08;;;;;;;;;;5124014;28;20266;-90
2022/03/02 04:34:37;;;;;;;120.05;51.58;;;;;;;;;;5125759;28;20217;-90
2022/03/02 04:37:04;;;;;;;105.20;48.08;;;;;;;;;;5125858;28;20208;-89
2022/03/02 04:39:32;;;;;;;109.18;51.75;;;;;;;;;;5125172;28;20197;-90
2022/03/02 04:41:59;;;;;;;107.85;49.10;;;;;;;;;;5125405;28;20219;-90
2022/03/02 04:44:25;;;;;;;117.03;50.30;;;;;;;;;;5124787;28;20225;-89
2022/03/02 04:46:52;;;;;;;109.65;48.85;;;;;;;;;;5125166;28;20210;-89
2022/03/02 04:49:19;;;;;;;111.78;52.72;;;;;;;;;;5113567;28;20216;-89
2022/03/02 04:51:46;;;;;;;109.68;50.17;;;;;;;;;;5124586;28;20217;-89
2022/03/02 04:55:05;;;;;;;115.00;51.58;;;;;;;;;;5124639;28;20257;-89
2022/03/02 04:57:02;;;;;;;108.10;50.92;;;;;;;;;;5124065;28;20197;-90
2022/03/02 04:59:28;;;;;;;113.95;50.17;;;;;;;;;;5125093;28;20227;-90
2022/03/02 05:01:55;;;;;;;112.85;52.00;;;;;;;;;;5125159;28;20209;-91
2022/03/02 05:04:21;;;;;;;111.90;50.92;;;;;;;;;;5110129;28;20260;-91
2022/03/02 05:06:48;;;;;;;116.55;53.10;;;;;;;;;;5116766;28;20878;-90
2022/03/02 05:09:14;;;;;;;117.43;54.20;;;;;;;;;;5124094;28;20290;-90
2022/03/02 05:11:41;;;;;;;112.50;51.63;;;;;;;;;;5112924;28;20190;-90
2022/03/02 05:14:09;;;;;;;117.32;54.83;;;;;;;;;;5104991;28;20198;-90
2022/03/02 05:16:35;;;;;;;116.78;55.15;;;;;;;;;;5102834;28;20224;-90
2022/03/02 05:19:02;;;;;;;115.38;53.38;;;;;;;;;;5103316;28;20216;-91
2022/03/02 05:21:28;;;;;;;117.60;52.63;;;;;;;;;;5104728;28;20225;-90
2022/03/02 05:23:55;;;;;;;125.53;53.67;;;;;;;;;;5107783;28;20209;-90
2022/03/02 05:26:21;;;;;;;117.32;54.10;;;;;;;;;;5124000;28;20722;-95
2022/03/02 05:28:48;;;;;;;115.68;53.70;;;;;;;;;;5124308;28;20198;-92
2022/03/02 05:31:16;;;;;;;117.32;54.65;;;;;;;;;;5124833;28;20243;-92
2022/03/02 05:33:43;;;;;;;119.30;55.30;;;;;;;;;;5124795;28;20206;-89
2022/03/02 05:36:10;;;;;;;127.85;57.13;;;;;;;;;;5123786;28;20222;-89
2022/03/02 05:38:36;;;;;;;119.97;56.95;;;;;;;;;;5123978;28;20198;-89
2022/03/02 05:41:03;;;;;;;119.28;55.97;;;;;;;;;;5121147;28;20215;-89
2022/03/02 05:43:29;;;;;;;141.70;53.85;;;;;;;;;;5122664;28;20223;-90
2022/03/02 05:45:56;;;;;;;125.25;57.13;;;;;;;;;;5124599;28;20197;-90
2022/03/02 05:48:24;;;;;;;126.00;54.35;;;;;;;;;;5124093;28;20220;-89
2022/03/02 05:50:50;;;;;;;121.35;55.38;;;;;;;;;;5124055;28;20202;-90
2022/03/02 05:53:16;;;;;;;138.25;57.60;;;;;;;;;;5124170;28;20225;-89
2022/03/02 05:55:43;;;;;;;130.30;57.40;;;;;;;;;;5124429;28;20266;-90
2022/03/02 05:58:10;;;;;;;124.15;57.05;;;;;;;;;;5123417;28;20198;-91
2022/03/02 06:00:36;;;;;;;121.13;55.65;;;;;;;;;;5119413;28;20661;-90
2022/03/02 06:03:03;;;;;;;123.25;55.72;;;;;;;;;;5122225;28;20226;-89
2022/03/02 06:05:31;;;;;;;142.40;58.33;;;;;;;;;;5123888;28;20753;-91
2022/03/02 06:07:57;;;;;;;125.57;57.60;;;;;;;;;;5117363;28;20190;-91
2022/03/02 06:10:24;;;;;;;129.73;57.08;;;;;;;;;;5112628;28;20203;-91
2022/03/02 06:12:51;;;;;;;125.47;58.20;;;;;;;;;;5119365;28;20202;-91
2022/03/02 06:15:18;;;;;;;127.38;57.78;;;;;;;;;;5096127;28;20190;-91
2022/03/02 06:17:44;;;;;;;124.78;54.75;;;;;;;;;;5097072;28;20198;-91
2022/03/02 06:20:11;;;;;;;125.72;55.42;;;;;;;;;;5103052;28;20199;-90
2022/03/02 06:22:40;;;;;;;124.93;57.22;;;;;;;;;;5104940;28;20206;-91
2022/03/02 06:25:07;;;;;;;121.30;55.22;;;;;;;;;;5122759;28;20270;-91
2022/03/02 06:27:34;;;;;;;123.43;56.58;;;;;;;;;;5122040;28;20315;-91
2022/03/02 06:30:01;;;;;;;129.70;56.55;;;;;;;;;;5114213;28;20258;-90
2022/03/02 06:32:28;;;;;;;117.13;54.17;;;;;;;;;;5112773;28;20654;-91
2022/03/02 06:34:55;;;;;;;127.82;58.20;;;;;;;;;;5121348;28;20202;-92
2022/03/02 06:37:21;;;;;;;132.18;57.45;;;;;;;;;;5121329;28;20193;-91
2022/03/02 06:39:49;;;;;;;143.43;62.60;;;;;;;;;;5112794;28;20216;-89
2022/03/02 06:42:18;;;;;;;129.88;60.10;;;;;;;;;;5111800;28;20191;-90
2022/03/02 06:44:47;;;;;;;127.55;57.75;;;;;;;;;;5112682;28;20218;-89
2022/03/02 06:47:14;;;;;;;137.73;59.08;;;;;;;;;;5103739;28;20195;-90
2022/03/02 06:49:48;;;;;;;127.05;57.65;;;;;;;;;;5100232;28;20207;-89
2022/03/02 06:52:17;;;;;;;123.63;57.25;;;;;;;;;;5101765;28;20599;-89
2022/03/02 06:54:44;;;;;;;123.57;55.47;;;;;;;;;;5101453;28;20247;-89
2022/03/02 06:57:13;;;;;;;122.88;55.10;;;;;;;;;;5100943;28;20202;-91
2022/03/02 06:59:41;;;;;;;125.03;56.80;;;;;;;;;;5101409;28;20213;-91
2022/03/02 07:02:08;;;;;;;123.00;55.55;;;;;;;;;;5113623;28;20244;-91
2022/03/02 07:04:37;;;;;;;123.45;53.75;;;;;;;;;;5119528;28;20231;-91
2022/03/02 07:07:04;;;;;;;124.90;54.60;;;;;;;;;;5122446;28;20193;-91
2022/03/02 07:09:31;;;;;;;122.55;56.33;;;;;;;;;;5121271;28;20236;-90
2022/03/02 07:11:59;;;;;;;122.60;56.10;;;;;;;;;;5105395;28;20199;-90
2022/03/02 07:14:28;;;;;;;121.35;54.58;;;;;;;;;;5119525;28;20193;-90
2022/03/02 07:16:55;;;;;;;134.73;55.38;;;;;;;;;;5112692;28;20195;-90
2022/03/02 07:19:22;;;;;;;122.45;56.28;;;;;;;;;;5107739;28;20258;-90
2022/03/02 07:21:49;;;;;;;122.10;55.88;;;;;;;;;;5112043;28;20220;-90
2022/03/02 07:24:17;;;;;;;120.18;55.17;;;;;;;;;;5121708;28;20223;-90
2022/03/02 07:26:45;;;;;;;120.35;54.55;;;;;;;;;;5126341;28;20261;-90
2022/03/02 07:29:13;;;;;;;122.95;55.92;;;;;;;;;;5115138;28;20260;-90
2022/03/02 07:31:41;;;;;;;120.75;54.40;;;;;;;;;;5125914;28;20206;-90
2022/03/02 07:34:11;;;;;;;127.82;56.75;;;;;;;;;;5111546;28;20202;-90
2022/03/02 07:36:40;;;;;;;124.88;54.20;;;;;;;;;;5107487;28;20202;-90
2022/03/02 07:39:06;;;;;;;122.10;54.70;;;;;;;;;;5124980;28;20194;-90
2022/03/02 07:41:33;;;;;;;121.90;54.22;;;;;;;;;;5126919;28;20198;-91
2022/03/02 07:43:59;;;;;;;121.88;55.50;;;;;;;;;;5126193;28;20202;-91
2022/03/02 07:46:28;;;;;;;129.98;58.13;;;;;;;;;;5123119;28;20225;-92
2022/03/02 07:48:56;;;;;;;124.78;55.40;;;;;;;;;;5122663;28;20201;-92
2022/03/02 07:51:23;;;;;;;129.68;56.75;;;;;;;;;;5123086;28;20243;-92
2022/03/02 07:53:50;;;;;;;129.45;56.72;;;;;;;;;;5119916;28;20198;-92
2022/03/02 07:56:18;;;;;;;129.57;58.85;;;;;;;;;;5124942;28;20276;-93
2022/03/02 07:58:44;;;;;;;138.57;61.40;;;;;;;;;;5124445;28;20220;-93
2022/03/02 08:01:13;;;;;;;139.25;63.30;;;;;;;;;;5118890;28;20209;-93
2022/03/02 08:03:40;;;;;;;138.75;61.90;;;;;;;;;;5112346;28;20244;-93
2022/03/02 08:06:08;;;;;;;144.07;61.60;;;;;;;;;;5100704;28;20218;-93
2022/03/02 08:08:35;;;;;;;146.10;61.03;;;;;;;;;;5100699;28;20248;-92
2022/03/02 08:11:02;;;;;;;134.45;60.40;;;;;;;;;;5119603;28;20611;-92
2022/03/02 08:13:30;;;;;;;139.35;60.95;;;;;;;;;;5111398;28;20198;-93
2022/03/02 08:15:56;;;;;;;136.68;61.67;;;;;;;;;;5126512;28;20247;-91
2022/03/02 08:18:23;;;;;;;134.85;59.45;;;;;;;;;;5117607;28;20214;-91
2022/03/02 08:20:50;;;;;;;137.10;60.22;;;;;;;;;;5106355;28;20220;-91
2022/03/02 08:23:19;;;;;;;133.40;58.90;;;;;;;;;;5105750;28;20190;-91
2022/03/02 08:25:46;;;;;;;131.85;59.50;;;;;;;;;;5105174;28;20223;-91
2022/03/02 08:28:15;;;;;;;141.00;61.88;;;;;;;;;;5107877;28;20301;-92
2022/03/02 08:30:42;;;;;;;139.70;63.20;;;;;;;;;;5103188;28;20220;-92
2022/03/02 08:33:09;;;;;;;132.15;59.10;;;;;;;;;;5105861;28;20610;-92
2022/03/02 08:35:39;;;;;;;133.02;60.40;;;;;;;;;;5104498;28;20199;-91
2022/03/02 08:38:06;;;;;;;131.40;60.30;;;;;;;;;;5104713;28;20194;-92
2022/03/02 08:40:33;;;;;;;137.70;59.15;;;;;;;;;;5106048;28;20225;-93
2022/03/02 08:43:01;;;;;;;141.23;62.58;;;;;;;;;;5123938;28;20262;-92
2022/03/02 08:45:29;;;;;;;137.88;58.85;;;;;;;;;;5119782;28;20217;-92
2022/03/02 08:47:56;;;;;;;131.07;58.38;;;;;;;;;;5121107;28;20206;-92
2022/03/02 08:50:23;;;;;;;130.93;58.45;;;;;;;;;;5104204;28;20203;-93
2022/03/02 08:52:52;;;;;;;133.68;59.60;;;;;;;;;;5105135;28;20266;-93
2022/03/02 08:55:18;;;;;;;131.10;58.30;;;;;;;;;;5121230;28;20206;-94
2022/03/02 08:57:46;;;;;;;131.73;57.72;;;;;;;;;;5125862;28;20198;-93
2022/03/02 09:00:14;;;;;;;133.07;57.28;;;;;;;;;;5125708;28;20205;-90
2022/03/02 09:02:41;;;;;;;134.50;59.00;;;;;;;;;;5123309;28;20253;-92
2022/03/02 09:05:08;;;;;;;132.05;59.30;;;;;;;;;;5108545;28;20218;-92
2022/03/02 09:07:34;;;;;;;131.07;58.22;;;;;;;;;;5123918;28;20251;-92
2022/03/02 09:10:01;;;;;;;130.20;58.75;;;;;;;;;;5123590;28;20197;-93
2022/03/02 09:12:28;;;;;;;131.18;57.22;;;;;;;;;;5125780;28;20235;-93
2022/03/02 09:14:57;;;;;;;131.85;57.33;;;;;;;;;;5125478;28;20198;-92
2022/03/02 09:17:25;;;;;;;132.77;59.20;;;;;;;;;;5124058;28;20232;-93
2022/03/02 09:19:51;;;;;;;123.90;54.30;;;;;;;;;;5105665;28;20209;-96
2022/03/02 09:22:18;;;;;;;133.38;58.22;;;;;;;;;;5105414;28;20222;-92
2022/03/02 09:24:45;;;;;;;133.98;57.60;;;;;;;;;;5103310;28;20217;-93
2022/03/02 09:27:11;;;;;;;133.23;57.83;;;;;;;;;;5103675;28;20719;-92
2022/03/02 09:29:42;;;;;;;135.13;58.00;;;;;;;;;;5103533;28;20199;-93
2022/03/02 09:32:11;;;;;;;128.75;57.65;;;;;;;;;;5102593;28;20658;-93
2022/03/02 09:34:43;;;;;;;124.18;55.63;;;;;;;;;;5103363;28;20258;-96
2022/03/02 09:37:11;;;;;;;127.05;55.97;;;;;;;;;;5103899;28;20213;-94
2022/03/02 09:39:38;;;;;;;123.07;54.00;;;;;;;;;;5122148;28;20202;-96
2022/03/02 09:42:08;;;;;;;126.22;55.45;;;;;;;;;;5126065;28;20990;-95
2022/03/02 09:44:40;;;;;;;121.78;55.05;;;;;;;;;;5128472;28;20228;-94
2022/03/02 09:47:08;;;;;;;120.95;53.95;;;;;;;;;;5125601;28;20221;-96
2022/03/02 09:49:37;;;;;;;123.75;53.08;;;;;;;;;;5109238;28;20594;-96
2022/03/02 09:52:04;;;;;;;121.45;53.40;;;;;;;;;;5105673;28;20233;-96
2022/03/02 09:54:33;;;;;;;123.25;53.83;;;;;;;;;;5105750;28;20202;-92
2022/03/02 09:57:02;;;;;;;127.60;56.33;;;;;;;;;;5102536;28;20203;-94
2022/03/02 09:59:31;;;;;;;138.85;56.22;;;;;;;;;;5104429;28;20210;-96
2022/03/02 10:02:00;;;;;;;123.47;54.28;;;;;;;;;;5105999;28;20205;-96
2022/03/02 10:04:29;;;;;;;123.32;53.45;;;;;;;;;;5106129;28;20203;-96
2022/03/02 10:07:26;;;;;;;122.95;54.67;;;;;;;;;;5106307;28;20226;-96
2022/03/02 10:09:47;;;;;;;143.27;55.80;;;;;;;;;;5126223;28;20200;-96
2022/03/02 10:12:15;;;;;;;149.32;56.25;;;;;;;;;;5123203;28;20193;-96
2022/03/02 10:14:42;;;;;;;146.32;56.90;;;;;;;;;;5124965;28;20227;-96
2022/03/02 10:17:11;;;;;;;140.45;56.00;;;;;;;;;;5123495;28;20293;-95
2022/03/02 10:19:43;;;;;;;145.02;57.88;;;;;;;;;;5124199;28;20262;-95
2022/03/02 10:22:21;;;;;;;144.98;56.45;;;;;;;;;;5123828;28;20288;-94
2022/03/02 10:24:49;;;;;;;148.90;56.30;;;;;;;;;;5124884;28;20202;-95
2022/03/02 10:27:25;;;;;;;153.65;56.30;;;;;;;;;;5127501;28;20225;-92
2022/03/02 10:29:59;;;;;;;167.27;58.08;;;;;;;;;;5125639;28;20201;-96
2022/03/02 10:32:26;;;;;;;174.68;58.95;;;;;;;;;;5124850;28;20254;-94
2022/03/02 10:35:00;;;;;;;183.95;59.30;;;;;;;;;;5105967;28;20208;-96
2022/03/02 10:37:32;;;;;;;274.60;63.53;;;;;;;;;;5123197;28;20202;-95
2022/03/02 10:40:06;;;;;;;227.60;63.45;;;;;;;;;;5124137;28;20220;-92
2022/03/02 10:42:35;;;;;;;276.20;66.57;;;;;;;;;;5125063;28;20193;-96
2022/03/02 10:45:12;;;;;;;216.65;62.10;;;;;;;;;;5126449;28;20198;-96
2022/03/02 10:47:43;;;;;;;230.88;63.00;;;;;;;;;;5104707;28;20205;-96
2022/03/02 10:50:10;;;;;;;342.23;76.80;;;;;;;;;;5104075;28;20194;-96
2022/03/02 10:52:41;;;;;;;210.88;61.38;;;;;;;;;;5104805;28;20274;-96
2022/03/02 10:55:08;;;;;;;239.27;64.38;;;;;;;;;;5104398;28;20202;-96
2022/03/02 10:57:35;;;;;;;223.23;63.88;;;;;;;;;;5103952;28;20203;-95
2022/03/02 11:00:04;;;;;;;237.45;62.78;;;;;;;;;;5104271;28;20206;-95
2022/03/02 11:02:34;;;;;;;267.17;65.65;;;;;;;;;;5102638;28;20230;-91
2022/03/02 11:05:03;;;;;;;241.55;66.88;;;;;;;;;;5103541;28;20198;-94
2022/03/02 11:07:29;;;;;;;219.63;60.97;;;;;;;;;;5102123;28;20230;-95
2022/03/02 11:10:01;;;;;;;245.48;66.22;;;;;;;;;;5103251;28;20194;-96
2022/03/02 11:12:28;;;;;;;207.20;62.63;;;;;;;;;;5104549;28;20229;-91
2022/03/02 11:14:55;;;;;;;202.38;61.13;;;;;;;;;;5104873;28;20275;-93
2022/03/02 11:17:22;;;;;;;174.68;59.40;;;;;;;;;;5105618;28;20263;-95
2022/03/02 11:19:49;;;;;;;197.25;64.63;;;;;;;;;;5106503;28;20190;-93
2022/03/02 11:22:16;;;;;;;208.05;61.13;;;;;;;;;;5110617;28;20205;-92
2022/03/02 11:24:43;;;;;;;193.82;63.50;;;;;;;;;;5124127;28;20228;-96
2022/03/02 11:27:25;;;;;;;215.30;62.17;;;;;;;;;;5106821;28;20223;-94
2022/03/02 11:30:00;;;;;;;201.35;63.10;;;;;;;;;;5106153;28;20203;-95
2022/03/02 11:32:27;;;;;;;194.23;61.30;;;;;;;;;;5116238;28;20337;-91
2022/03/02 11:34:57;;;;;;;198.05;61.15;;;;;;;;;;5101792;28;20234;-93
2022/03/02 11:37:24;;;;;;;188.03;60.80;;;;;;;;;;5102179;28;20226;-93
2022/03/02 11:39:51;;;;;;;190.68;60.55;;;;;;;;;;5101473;28;20444;-93
2022/03/02 11:42:18;;;;;;;195.93;62.35;;;;;;;;;;5103001;28;20204;-95
2022/03/02 11:44:50;;;;;;;195.35;61.15;;;;;;;;;;5101723;28;20220;-94
2022/03/02 11:47:17;;;;;;;178.88;62.38;;;;;;;;;;5103003;28;20229;-90
2022/03/02 11:49:45;;;;;;;203.25;60.35;;;;;;;;;;5120458;28;20205;-93
2022/03/02 11:52:12;;;;;;;194.00;60.40;;;;;;;;;;5123665;28;20599;-94
2022/03/02 11:54:39;;;;;;;193.23;64.63;;;;;;;;;;5115144;28;20447;-93
2022/03/02 11:57:06;;;;;;;194.02;62.33;;;;;;;;;;5113818;28;20824;-93
2022/03/02 11:59:35;;;;;;;212.45;63.67;;;;;;;;;;5105896;28;20202;-94
2022/03/02 12:02:11;;;;;;;280.88;67.45;;;;;;;;;;5119094;28;20203;-94
2022/03/02 12:04:37;;;;;;;331.92;73.03;;;;;;;;;;5121715;28;20197;-94
2022/03/02 12:07:05;;;;;;;418.77;86.38;;;;;;;;;;5118671;28;20226;-92
2022/03/02 12:09:32;;;;;;;372.98;79.03;;;;;;;;;;5116906;28;20246;-94
2022/03/02 12:12:09;;;;;;;450.58;92.18;;;;;;;;;;5113825;28;20194;-96
2022/03/02 12:14:41;;;;;;;127.03;57.00;;;;;;;;;;5113983;28;20190;-94
2022/03/02 12:17:14;;;;;;;128.57;56.60;;;;;;;;;;5125936;28;20451;-96
2022/03/02 12:19:40;;;;;;;131.83;58.10;;;;;;;;;;5125732;28;20447;-94
2022/03/02 12:22:10;;;;;;;130.87;57.07;;;;;;;;;;5121810;28;20444;-91
2022/03/02 12:24:38;;;;;;;137.33;60.83;;;;;;;;;;5116121;28;20532;-96
2022/03/02 12:27:06;;;;;;;135.63;58.57;;;;;;;;;;5114898;28;20488;-96
2022/03/02 12:29:33;;;;;;;137.50;59.60;;;;;;;;;;5123948;28;20954;-94
2022/03/02 12:32:11;;;;;;;155.73;61.43;;;;;;;;;;5109252;28;20966;-94
2022/03/02 12:34:40;;;;;;;188.50;62.97;;;;;;;;;;5116104;28;20451;-96
2022/03/02 12:37:07;;;;;;;193.60;63.27;;;;;;;;;;5111553;28;20457;-94
2022/03/02 12:39:34;;;;;;;199.50;64.10;;;;;;;;;;5121795;28;20436;-92
2022/03/02 12:42:04;;;;;;;189.23;66.07;;;;;;;;;;5120617;28;20484;-96
2022/03/02 12:44:33;;;;;;;199.87;65.70;;;;;;;;;;5114684;28;21277;-93
2022/03/02 12:47:03;;;;;;;220.57;66.23;;;;;;;;;;5120549;28;20529;-96
2022/03/02 12:49:31;;;;;;;230.07;69.43;;;;;;;;;;5120534;28;20440;-93
2022/03/02 12:51:59;;;;;;;232.35;65.43;;;;;;;;;;5124796;28;20198;-95
2022/03/02 12:54:26;;;;;;;231.95;66.35;;;;;;;;;;5110221;28;20198;-94
2022/03/02 12:56:53;;;;;;;244.48;67.25;;;;;;;;;;5128105;28;20221;-96
2022/03/02 12:59:19;;;;;;;250.80;68.22;;;;;;;;;;5114276;28;20194;-94
2022/03/02 13:01:47;;;;;;;275.35;69.05;;;;;;;;;;5110371;28;20279;-96
2022/03/02 13:04:14;;;;;;;326.33;74.22;;;;;;;;;;5116622;28;20235;-90
2022/03/02 13:06:43;;;;;;;430.23;87.68;;;;;;;;;;5122560;28;20239;-93
2022/03/02 13:09:14;;;;;;;206.95;64.32;;;;;;;;;;5119798;28;20194;-93
2022/03/02 13:11:41;;;;;;;221.38;63.42;;;;;;;;;;5123291;28;20215;-96
2022/03/02 13:14:30;;;;;;;233.68;65.30;;;;;;;;;;5121786;28;20205;-94
2022/03/02 13:17:13;;;;;;;243.68;67.97;;;;;;;;;;5127483;28;20263;-96
2022/03/02 13:19:44;;;;;;;244.20;66.63;;;;;;;;;;5131573;27;20198;-94
2022/03/02 13:22:17;;;;;;;441.05;95.07;;;;;;;;;;5136985;27;20227;-96
2022/03/02 13:24:51;;;;;;;404.05;82.80;;;;;;;;;;5115626;28;20221;-96
2022/03/02 13:27:17;;;;;;;472.42;99.63;;;;;;;;;;5119458;28;20221;-96
2022/03/02 13:30:03;;;;;;;498.52;103.00;;;;;;;;;;5123379;28;20202;-96
2022/03/02 13:32:52;;;;;;;436.58;94.18;;;;;;;;;;5117114;28;20205;-92
2022/03/02 13:35:19;;;;;;;192.68;62.97;;;;;;;;;;5122235;28;20202;-92
2022/03/02 13:37:59;;;;;;;364.80;78.53;;;;;;;;;;5108806;28;20598;-94
2022/03/02 13:40:47;;;;;;;307.85;69.43;;;;;;;;;;5105422;28;20217;-92
2022/03/02 13:43:33;;;;;;;311.98;71.22;;;;;;;;;;5107726;28;20861;-94
2022/03/02 13:46:22;;;;;;;368.25;76.90;;;;;;;;;;5120337;28;20219;-95
2022/03/02 13:48:55;;;;;;;412.25;82.88;;;;;;;;;;5124536;28;20198;-95
2022/03/02 13:51:22;;;;;;;339.75;75.20;;;;;;;;;;5124126;28;20197;-94
2022/03/02 13:53:51;;;;;;;383.27;81.13;;;;;;;;;;5107642;28;20244;-93
2022/03/02 13:56:20;;;;;;;109.90;37.55;;;;;;;;;;5120475;28;20224;-93
2022/03/02 13:58:48;;;;;;;139.75;58.90;;;;;;;;;;5118926;28;20263;-96
2022/03/02 14:01:17;;;;;;;138.30;57.95;;;;;;;;;;5112714;28;20191;-92
2022/03/02 14:03:45;;;;;;;139.43;59.50;;;;;;;;;;5113754;28;20239;-95
2022/03/02 14:06:12;;;;;;;137.77;58.90;;;;;;;;;;5104229;28;20444;-94
2022/03/02 14:08:42;;;;;;;141.00;59.53;;;;;;;;;;5108996;28;20459;-93